createdAt,value
2022-09-06T00:00:02.291Z,175.135
2022-09-06T00:05:02.223Z,166.81
2022-09-06T00:10:02.444Z,168.385
2022-09-06T00:15:02.278Z,274.42
2022-09-06T00:20:02.281Z,266.01
2022-09-06T00:25:02.243Z,261.561
2022-09-06T00:30:02.480Z,158.016
2022-09-06T00:35:02.277Z,149.102
2022-09-06T00:40:02.413Z,148.853
2022-09-06T00:45:02.283Z,162.622
2022-09-06T00:50:02.443Z,173.69400000000002
2022-09-06T00:55:02.291Z,194.636
2022-09-06T01:00:02.353Z,294.342
2022-09-06T01:05:02.268Z,285.547
2022-09-06T01:10:02.596Z,285.635
2022-09-06T01:15:02.296Z,207.452
2022-09-06T01:20:02.304Z,181.786
2022-09-06T01:25:02.386Z,162.388
2022-09-06T01:30:02.441Z,148.21
2022-09-06T01:35:02.304Z,156.732
2022-09-06T01:40:02.532Z,198.03900000000002
2022-09-06T01:45:02.551Z,298.112
2022-09-06T01:50:02.389Z,288.414
2022-09-06T01:55:02.376Z,282.184
2022-09-06T02:00:02.312Z,176.255
2022-09-06T02:05:02.507Z,149.366
2022-09-06T02:10:02.321Z,149.232
2022-09-06T02:15:02.330Z,149.321
2022-09-06T02:20:02.458Z,149.31900000000002
2022-09-06T02:25:02.377Z,175.142
2022-09-06T02:30:02.418Z,270.15
2022-09-06T02:35:02.337Z,261.723
2022-09-06T02:40:02.591Z,260.089
2022-09-06T02:45:02.610Z,205.841
2022-09-06T02:50:02.402Z,172.977
2022-09-06T02:55:02.370Z,172.04500000000002
2022-09-06T03:00:02.531Z,171.148
2022-09-06T03:05:02.384Z,173.737
2022-09-06T03:10:02.375Z,185.522
2022-09-06T03:15:02.582Z,303.385
2022-09-06T03:20:02.598Z,279.785
2022-09-06T03:25:02.442Z,256.983
2022-09-06T03:30:02.412Z,166.99
2022-09-06T03:35:02.463Z,165.82500000000002
2022-09-06T03:40:02.476Z,172.385
2022-09-06T03:45:02.405Z,170.803
2022-09-06T03:50:02.405Z,169.598
2022-09-06T03:55:02.630Z,185.749
2022-09-06T04:00:02.807Z,273.146
2022-09-06T04:05:02.413Z,260.624
2022-09-06T04:10:02.487Z,256.729
2022-09-06T04:15:02.749Z,167.20000000000002
2022-09-06T04:20:02.531Z,1386.72
2022-09-06T04:25:02.432Z,2264.391
2022-09-06T04:30:02.488Z,2330.129
2022-09-06T04:35:02.974Z,2708.794
2022-09-06T04:40:02.568Z,2755.286
2022-09-06T04:45:02.497Z,295.80400000000003
2022-09-06T04:50:02.459Z,317.82
2022-09-06T04:55:02.668Z,322.555
2022-09-06T05:00:02.580Z,272.253
2022-09-06T05:05:02.542Z,214.298
2022-09-06T05:10:02.531Z,207.392
2022-09-06T05:15:02.579Z,953.841
2022-09-06T05:20:02.592Z,200.285
2022-09-06T05:25:02.705Z,195.064
2022-09-06T05:30:02.692Z,295.732
2022-09-06T05:35:02.542Z,318.94100000000003
2022-09-06T05:40:02.820Z,318.129
2022-09-06T05:45:02.533Z,219.673
2022-09-06T05:50:02.678Z,206.785
2022-09-06T05:55:02.537Z,197.089
2022-09-06T06:00:02.627Z,181.882
2022-09-06T06:05:02.570Z,181.382
2022-09-06T06:10:02.739Z,202.719
2022-09-06T06:15:02.541Z,300.661
2022-09-06T06:20:02.589Z,291.946
2022-09-06T06:25:02.714Z,514.635
2022-09-06T06:30:02.586Z,1107.952
2022-09-06T06:35:02.589Z,287.332
2022-09-06T06:40:02.688Z,295.255
2022-09-06T06:45:02.737Z,290.522
2022-09-06T06:50:02.600Z,290.701
2022-09-06T06:55:02.559Z,312.351
2022-09-06T07:00:02.697Z,405.605
2022-09-06T07:05:02.787Z,398.252
2022-09-06T07:15:02.645Z,306.302
2022-09-06T07:20:16.078Z,275.761
2022-09-06T07:25:02.713Z,262.369
2022-09-06T07:30:02.593Z,253.631
2022-09-06T07:35:02.596Z,251.466
2022-09-06T07:40:02.933Z,250.64000000000001
2022-09-06T07:45:02.615Z,360.442
2022-09-06T07:55:02.713Z,357.684
2022-09-06T08:00:02.631Z,300.119
2022-09-06T08:05:02.632Z,1013.883
2022-09-06T08:10:02.629Z,274.536
2022-09-06T08:15:02.809Z,271.544
2022-09-06T08:20:02.703Z,269.478
2022-09-06T08:25:02.710Z,267.238
2022-09-06T08:30:02.744Z,322.536
2022-09-06T08:35:02.755Z,328.427
2022-09-06T08:40:02.761Z,301.026
2022-09-06T08:45:02.685Z,268.113
2022-09-06T08:50:02.873Z,220.208
2022-09-06T08:55:02.687Z,220.645
2022-09-06T09:00:02.711Z,185.886
2022-09-06T09:05:02.713Z,185.102
2022-09-06T09:10:02.696Z,3137.8650000000002
2022-09-06T09:15:02.758Z,7749.758
2022-09-06T09:20:02.835Z,7781.97
2022-09-06T09:25:02.869Z,7769.66
2022-09-06T09:35:02.679Z,7674.417
2022-09-06T09:40:02.869Z,7677.68
2022-09-06T09:45:02.704Z,7648.332
2022-09-06T09:50:01.408Z,8756.702
2022-09-06T09:55:01.292Z,7627.883
2022-09-06T10:00:01.313Z,7748.599
2022-09-06T10:05:01.323Z,7243.544
2022-09-06T10:10:01.514Z,306.729
2022-09-06T10:15:03.595Z,252.43800000000002
2022-09-06T10:20:01.292Z,226.024
2022-09-06T10:25:01.538Z,225.931
2022-09-06T10:30:01.408Z,228.805
2022-09-06T10:35:01.337Z,220.6
2022-09-06T10:40:01.585Z,217.913
2022-09-06T10:45:01.317Z,327.26800000000003
2022-09-06T10:50:01.313Z,335.392
2022-09-06T10:55:01.452Z,326.134
2022-09-06T11:00:01.360Z,272.303
2022-09-06T11:10:01.446Z,192.582
2022-09-06T11:15:01.330Z,195.002
2022-09-06T11:20:01.390Z,194.13400000000001
2022-09-06T11:25:01.503Z,187.044
2022-09-06T11:30:01.414Z,4319.625
2022-09-06T11:35:01.373Z,8380.906
2022-09-06T11:40:29.966Z,7771.564
2022-09-06T11:45:01.411Z,7682.573
2022-09-06T11:50:01.496Z,7655.444
2022-09-06T11:55:01.393Z,7651.406
2022-09-06T12:00:01.345Z,7642.01
2022-09-06T12:05:01.409Z,7656.1720000000005
2022-09-06T12:25:01.419Z,7726.923
2022-09-06T12:30:01.416Z,7672.95
2022-09-06T12:40:01.587Z,7630.607
2022-09-06T12:45:01.388Z,7633.058
2022-09-06T12:50:01.425Z,7637.232
2022-09-06T12:55:01.515Z,8645.565
2022-09-06T13:00:01.460Z,10477.229
2022-09-06T13:05:01.432Z,10521.831
2022-09-06T13:10:01.419Z,7732.816
2022-09-06T13:15:01.646Z,7638.506
2022-09-06T13:20:01.495Z,7681.292
2022-09-06T13:25:01.469Z,1189.905
2022-09-06T13:30:01.570Z,182.717
2022-09-06T13:35:01.500Z,196.667
2022-09-06T13:40:01.620Z,208.592
2022-09-06T13:45:02.384Z,344.54
2022-09-06T13:50:01.485Z,402.083
2022-09-06T13:55:01.498Z,388.176
2022-09-06T14:00:01.682Z,293.314
2022-09-06T14:05:01.543Z,652.767
2022-09-06T14:10:01.628Z,208.657
2022-09-06T14:15:01.647Z,400.745
2022-09-06T14:20:01.566Z,268.008
2022-09-06T14:25:01.515Z,153.412
2022-09-06T14:30:01.698Z,275.919
2022-09-06T14:35:01.500Z,295.329
2022-09-06T14:40:01.646Z,319.406
2022-09-06T14:45:01.676Z,282.522
2022-09-06T14:50:01.514Z,202.068
2022-09-06T14:55:01.585Z,175.872
2022-09-06T15:00:01.633Z,158.036
2022-09-06T15:05:01.580Z,152.073
2022-09-06T15:10:01.541Z,151.745
2022-09-06T15:15:01.584Z,240.881
2022-09-06T15:20:01.553Z,269.467
2022-09-06T15:25:01.559Z,267.97700000000003
2022-09-06T15:30:01.636Z,235.19
2022-09-06T15:35:04.606Z,174.748
2022-09-06T15:40:01.624Z,178.15200000000002
2022-09-06T15:45:01.743Z,174.531
2022-09-06T15:50:01.766Z,174.133
2022-09-06T15:55:01.602Z,173.794
2022-09-06T16:00:01.622Z,260.532
2022-09-06T16:05:01.644Z,300.284
2022-09-06T16:10:01.821Z,297.572
2022-09-06T16:15:01.596Z,263.68
2022-09-06T16:20:01.601Z,156.221
2022-09-06T16:25:01.823Z,152.899
2022-09-06T16:30:01.602Z,164.724
2022-09-06T16:35:01.613Z,178.923
2022-09-06T16:40:01.849Z,176.417
2022-09-06T16:45:01.634Z,264.69100000000003
2022-09-06T16:50:01.693Z,292.229
2022-09-06T16:55:01.677Z,285.455
2022-09-06T17:00:01.835Z,222.127
2022-09-06T17:05:01.653Z,152.312
2022-09-06T17:10:01.678Z,154.344
2022-09-06T17:15:01.789Z,221.824
2022-09-06T17:20:01.658Z,244.36
2022-09-06T17:25:01.677Z,234.823
2022-09-06T17:30:01.672Z,356.759
2022-09-06T17:35:01.816Z,414.346
2022-09-06T17:40:01.741Z,411.593
2022-09-06T17:45:01.658Z,374.545
2022-09-06T17:50:01.880Z,307.90500000000003
2022-09-06T17:55:01.712Z,324.693
2022-09-06T18:00:01.701Z,483.106
2022-09-06T18:05:01.818Z,279.318
2022-09-06T18:10:01.928Z,275.386
2022-09-06T18:15:06.617Z,1000.4780000000001
2022-09-06T18:20:01.694Z,388.249
2022-09-06T18:25:01.870Z,371.69100000000003
2022-09-06T18:30:01.701Z,316.986
2022-09-06T18:35:01.735Z,235.329
2022-09-06T18:40:01.827Z,235.258
2022-09-06T18:45:01.964Z,373.565
2022-09-06T18:50:01.733Z,596.072
2022-09-06T18:55:01.771Z,175.687
2022-09-06T19:00:01.789Z,249.74200000000002
2022-09-06T19:05:02.177Z,297.538
2022-09-06T19:10:01.755Z,601.405
2022-09-06T19:15:01.755Z,271.156
2022-09-06T19:20:01.873Z,192.12
2022-09-06T19:25:01.815Z,216.683
2022-09-06T19:30:01.741Z,221.297
2022-09-06T19:35:01.782Z,221.08100000000002
2022-09-06T19:40:01.987Z,220.47
2022-09-06T19:45:01.760Z,299.819
2022-09-06T19:50:01.791Z,352.171
2022-09-06T19:55:01.806Z,364.802
2022-09-06T20:00:01.986Z,325.886
2022-09-06T20:05:01.793Z,307.575
2022-09-06T20:10:01.844Z,1858.0710000000001
2022-09-06T20:15:01.902Z,602.8290000000001
2022-09-06T20:20:01.797Z,268.235
2022-09-06T20:25:01.868Z,485.262
2022-09-06T20:30:01.812Z,347.491
2022-09-06T20:35:01.993Z,381.016
2022-09-06T20:40:01.873Z,351.226
2022-09-06T20:45:01.835Z,422.851
2022-09-06T20:50:01.876Z,236.671
2022-09-06T20:55:02.054Z,226.596
2022-09-06T21:00:01.905Z,253.074
2022-09-06T21:05:01.957Z,209.749
2022-09-06T21:10:01.843Z,3118.072
2022-09-06T21:15:02.036Z,7791.245
2022-09-06T21:20:01.951Z,7840.993
2022-09-06T21:25:01.910Z,7870.536
2022-09-06T21:30:01.856Z,7807.357
2022-09-06T21:35:02.061Z,7056.769
2022-09-06T21:40:01.969Z,183.487
2022-09-06T21:45:01.863Z,184.028
2022-09-06T21:50:05.934Z,150.589
2022-09-06T21:55:05.936Z,150.883
2022-09-06T22:00:05.966Z,223.38
2022-09-06T22:05:05.937Z,289.123
2022-09-06T22:10:06.050Z,286.992
2022-09-06T22:15:05.957Z,233.461
2022-09-06T22:20:05.940Z,173.66400000000002
2022-09-06T22:25:06.013Z,173.025
2022-09-06T22:30:06.136Z,160.519
2022-09-06T22:35:05.959Z,149.436
2022-09-06T22:40:06.091Z,149.17600000000002
2022-09-06T22:45:05.942Z,238.031
2022-09-06T22:50:06.122Z,267.422
2022-09-06T22:55:06.038Z,261.75
2022-09-06T23:00:05.976Z,250.25
2022-09-06T23:05:06.062Z,157.142
2022-09-06T23:10:06.165Z,174.38
2022-09-06T23:15:06.064Z,174.28900000000002
2022-09-06T23:20:05.979Z,173.625
2022-09-06T23:25:06.048Z,172.909
2022-09-06T23:30:06.166Z,215.637
2022-09-06T23:35:06.115Z,301.572
2022-09-06T23:40:08.894Z,296.229
2022-09-06T23:45:06.100Z,273.036
2022-09-06T23:50:06.286Z,150.209
2022-09-06T23:55:06.046Z,150.381
